Teton, Idaho
Current Conditions -  °F | °C
As of 10:53 AM on Sunday 21 Dec 2014 (Local Time) from KRXE Reporting Station
Broken Clouds Broken Clouds  
Wind Chill:   Ceiling: 1300
Heat Index:   Visibility: 10mi
Dew Point:   Wind: 6mph
Humidity: 89%   Direction: 270°W
Pressure: 29.72"   Gusts: 16mph
Location:  43.89°N, 111.68°W
Report Text: KRXE 211753Z AUTO 27005G14KT 10SM BKN013 BKN090 03/02 A2972 RMK AO2 SLP072 60000 T00330017 10039 20011 53003
Loading
Personal Weather Stations






























Interactive Weather Map New forecast layout! Learn more

10-Day Weather Forecast

Advertisements
Track Severe Weather on mobile